Terminal Aerodrome Forecast
Issued by NWS Boise, ID

Home | Current Version | Previous Version | Text Only | Print | Product List | Glossary On
Versions: 1 2 3 4 5 6 7 8 9 10 11 12 13 14 15
000
FTUS45 KBOI 230520
TAFBNO
TAF
KBNO 230520Z 2306/2406 24006KT P6SM FEW080
     FM231800 23015G25KT P6SM BKN100
     FM240000 23015G25KT P6SM -SHRA BKN050=

USA.gov is the U.S. government's official web portal to all federal, state and local government web resources and services.